createdAt,value
2019-04-22T00:00:46.571Z,95457.67
2019-04-22T00:03:12.958Z,95459.92
2019-04-22T00:05:56.323Z,95460.13
2019-04-22T00:08:29.604Z,95462.67
2019-04-22T00:10:56.151Z,95458.79
2019-04-22T00:13:26.345Z,95456.53
2019-04-22T00:15:43.850Z,95458.37
2019-04-22T00:18:13.237Z,95459.70
2019-04-22T00:20:37.031Z,95457.45
2019-04-22T00:23:05.148Z,95458.87
2019-04-22T00:28:01.007Z,95459.29
2019-04-22T00:32:46.428Z,95452.40
2019-04-22T00:35:11.610Z,95456.41
2019-04-22T00:37:43.821Z,95451.06
2019-04-22T00:40:07.339Z,95452.40
2019-04-22T00:42:34.716Z,95447.59
2019-04-22T00:45:00.802Z,95443.06
2019-04-22T00:47:29.066Z,95444.93
2019-04-22T00:52:18.663Z,95442.77
2019-04-22T00:54:45.618Z,95440.93
2019-04-22T00:57:09.166Z,95437.84
2019-04-22T00:59:32.600Z,95426.34
2019-04-22T01:02:00.687Z,95433.42
2019-04-22T01:04:27.788Z,95427.25
2019-04-22T01:06:51.541Z,95426.84
2019-04-22T01:09:17.346Z,95425.09
2019-04-22T01:11:37.728Z,95427.25
2019-04-22T01:14:06.527Z,95422.42
2019-04-22T01:16:40.789Z,95422.42
2019-04-22T01:19:05.329Z,95419.45
2019-04-22T01:21:29.006Z,95430.04
2019-04-22T01:23:52.178Z,95427.87
2019-04-22T01:26:09.472Z,95430.13
2019-04-22T01:28:34.513Z,95426.63
2019-04-22T01:30:55.671Z,95431.04
2019-04-22T01:33:21.870Z,95423.57
2019-04-22T01:35:58.367Z,95423.04
2019-04-22T01:38:23.570Z,95428.79
2019-04-22T01:41:05.018Z,95431.96
2019-04-22T01:43:25.079Z,95432.91
2019-04-22T01:45:45.116Z,95434.24
2019-04-22T01:48:24.087Z,95431.66
2019-04-22T01:50:37.050Z,95433.41
2019-04-22T01:53:13.352Z,95435.66
2019-04-22T01:57:53.345Z,95434.33
2019-04-22T02:00:17.894Z,95431.77
2019-04-22T02:02:49.288Z,95421.10
2019-04-22T02:05:18.353Z,95417.91
2019-04-22T02:07:46.830Z,95413.59
2019-04-22T02:10:12.678Z,95414.44
2019-04-22T02:12:33.671Z,95414.94
2019-04-22T02:14:59.430Z,95416.16
2019-04-22T02:17:33.344Z,95412.77
2019-04-22T02:22:30.142Z,95414.94
2019-04-22T02:24:46.712Z,95415.77
2019-04-22T02:27:17.785Z,95415.34
2019-04-22T02:32:13.445Z,95412.88
2019-04-22T02:34:39.837Z,95410.72
2019-04-22T02:37:00.123Z,95416.89
2019-04-22T02:41:52.773Z,95409.68
2019-04-22T02:46:54.698Z,95417.69
2019-04-22T02:49:18.758Z,95413.80
2019-04-22T02:59:09.524Z,95404.05
2019-04-22T03:06:30.457Z,95406.30
2019-04-22T03:08:42.749Z,95407.22
2019-04-22T03:13:44.407Z,95409.08
2019-04-22T03:18:29.155Z,95406.41
2019-04-22T03:20:50.039Z,95403.75
2019-04-22T03:27:58.369Z,95400.75
2019-04-22T03:40:28.666Z,95408.75
2019-04-22T03:42:52.345Z,95415.03
2019-04-22T03:45:20.142Z,95405.28
2019-04-22T03:50:04.133Z,95415.23
2019-04-22T03:52:20.393Z,95422.62
2019-04-22T04:09:33.368Z,95433.17
2019-04-22T04:14:26.318Z,95434.01
2019-04-22T04:17:06.226Z,95430.92
2019-04-22T04:19:31.496Z,95426.92
2019-04-22T04:21:50.537Z,95434.09
2019-04-22T04:24:29.520Z,95436.37
2019-04-22T04:26:45.211Z,95439.54
2019-04-22T04:29:05.755Z,95443.95
2019-04-22T04:33:54.574Z,95439.42
2019-04-22T04:36:16.808Z,95441.80
2019-04-22T04:43:37.322Z,95447.43
2019-04-22T04:48:38.397Z,95450.84
2019-04-22T04:51:11.061Z,95447.64
2019-04-22T04:55:46.734Z,95446.23
2019-04-22T05:00:51.475Z,95456.17
2019-04-22T05:03:08.174Z,95447.78
2019-04-22T05:05:29.302Z,95445.20
2019-04-22T05:07:55.954Z,95449.00
2019-04-22T05:15:20.823Z,95441.30
2019-04-22T05:17:47.298Z,95438.24
2019-04-22T05:20:05.241Z,95439.05
2019-04-22T05:22:29.799Z,95441.30
2019-04-22T05:24:56.515Z,95443.16
2019-04-22T05:27:20.489Z,95443.78
2019-04-22T05:30:03.361Z,95436.08
2019-04-22T05:32:09.252Z,95441.91
2019-04-22T05:34:33.523Z,95442.33
2019-04-22T05:37:01.163Z,95441.91
2019-04-22T05:39:24.606Z,95441.49
2019-04-22T05:41:59.284Z,95450.03
2019-04-22T05:44:22.335Z,95446.95
2019-04-22T05:46:45.970Z,95456.28
2019-04-22T05:49:15.165Z,95454.65
2019-04-22T05:51:40.273Z,95450.23
2019-04-22T05:54:05.437Z,95448.56
2019-04-22T05:56:34.310Z,95444.48
2019-04-22T05:58:58.639Z,95446.23
2019-04-22T06:03:50.773Z,95448.98
2019-04-22T06:06:16.743Z,95447.64
2019-04-22T06:08:39.932Z,95448.98
2019-04-22T06:11:09.425Z,95444.56
2019-04-22T06:13:27.704Z,95446.84
2019-04-22T06:15:52.943Z,95446.84
2019-04-22T06:18:27.277Z,95446.84
2019-04-22T06:20:53.215Z,95450.02
2019-04-22T06:23:18.689Z,95451.34
2019-04-22T06:28:13.534Z,95450.02
2019-04-22T06:30:34.644Z,95451.43
2019-04-22T06:33:04.111Z,95448.77
2019-04-22T06:35:31.208Z,95449.59
2019-04-22T06:38:12.410Z,95446.09
2019-04-22T06:40:24.674Z,95448.38
2019-04-22T06:42:42.496Z,95442.09
2019-04-22T06:45:15.579Z,95443.84
2019-04-22T06:47:54.331Z,95436.37
2019-04-22T06:50:03.956Z,95446.09
2019-04-22T06:52:22.581Z,95439.42
2019-04-22T06:54:54.926Z,95441.30
2019-04-22T06:57:19.202Z,95451.05
2019-04-22T06:59:49.885Z,95450.63
2019-04-22T07:04:33.864Z,95444.38
2019-04-22T07:09:36.924Z,95451.55
2019-04-22T07:11:58.832Z,95443.55
2019-04-22T07:14:20.388Z,95442.63
2019-04-22T07:19:18.413Z,95442.63
2019-04-22T07:21:37.366Z,95449.30
2019-04-22T07:24:24.228Z,95451.55
2019-04-22T07:26:24.444Z,95448.88
2019-04-22T07:28:56.110Z,95443.13
2019-04-22T07:31:20.586Z,95443.95
2019-04-22T07:34:12.881Z,95443.95
2019-04-22T07:38:38.940Z,95435.95
2019-04-22T07:41:08.407Z,95433.79
2019-04-22T07:46:05.129Z,95427.53
2019-04-22T07:48:35.676Z,95429.78
2019-04-22T07:51:00.679Z,95422.62
2019-04-22T07:53:17.319Z,95426.20
2019-04-22T07:55:47.055Z,95421.37
2019-04-22T07:58:11.888Z,95425.28
2019-04-22T08:00:36.874Z,95420.45
2019-04-22T08:03:09.837Z,95423.95
2019-04-22T08:08:05.395Z,95422.50
2019-04-22T08:10:39.077Z,95425.28
2019-04-22T08:12:45.668Z,95427.95
2019-04-22T08:15:12.951Z,95415.95
2019-04-22T08:22:27.199Z,95410.00
2019-04-22T08:24:54.291Z,95401.16
2019-04-22T08:27:25.314Z,95400.25
2019-04-22T08:29:53.895Z,95400.36
2019-04-22T08:32:15.205Z,95402.08
2019-04-22T08:34:37.312Z,95394.08
2019-04-22T08:37:37.464Z,95395.41
2019-04-22T08:39:34.549Z,95395.83
2019-04-22T08:41:51.280Z,95397.99
2019-04-22T08:44:28.206Z,95398.08
2019-04-22T08:46:53.955Z,95395.33
2019-04-22T08:49:10.471Z,95394.91
2019-04-22T08:51:56.835Z,95386.91
2019-04-22T08:54:24.496Z,95382.07
2019-04-22T08:56:45.855Z,95386.91
2019-04-22T08:59:24.753Z,95383.20
2019-04-22T09:03:52.746Z,95384.95
2019-04-22T09:06:29.887Z,95381.87
2019-04-22T09:08:41.749Z,95370.28
2019-04-22T09:11:18.486Z,95371.20
2019-04-22T09:13:35.596Z,95372.45
2019-04-22T09:16:03.618Z,95369.37
2019-04-22T09:18:28.784Z,95366.28
2019-04-22T09:21:00.599Z,95370.61
2019-04-22T09:23:27.133Z,95365.36
2019-04-22T09:25:48.785Z,95363.95
2019-04-22T09:28:17.538Z,95360.86
2019-04-22T09:30:41.547Z,95356.75
2019-04-22T09:33:11.095Z,95357.58
2019-04-22T09:35:31.918Z,95344.73
2019-04-22T09:38:16.944Z,95342.08
2019-04-22T09:40:22.322Z,95338.41
2019-04-22T09:42:50.454Z,95333.98
2019-04-22T09:45:11.237Z,95331.73
2019-04-22T09:50:24.250Z,95328.95
2019-04-22T09:52:37.230Z,95328.95
2019-04-22T09:57:29.497Z,95321.36
2019-04-22T09:59:57.503Z,95321.78
2019-04-22T10:02:38.848Z,95315.11
2019-04-22T10:04:48.208Z,95313.36
2019-04-22T10:07:09.860Z,95315.41
2019-04-22T10:11:55.211Z,95304.23
2019-04-22T10:14:30.900Z,95306.48
2019-04-22T10:19:18.331Z,95295.81
2019-04-22T10:24:10.542Z,95289.15
2019-04-22T10:26:40.930Z,95289.45
2019-04-22T10:29:11.024Z,95285.77
2019-04-22T10:31:34.513Z,95277.36
2019-04-22T10:33:45.229Z,95275.91
2019-04-22T10:35:55.535Z,95275.91
2019-04-22T10:38:22.096Z,95276.65
2019-04-22T10:40:47.639Z,95275.81
2019-04-22T10:43:14.908Z,95271.49
2019-04-22T10:45:39.967Z,95268.02
2019-04-22T10:48:06.177Z,95263.10
2019-04-22T10:50:34.785Z,95259.81
2019-04-22T10:52:59.322Z,95255.28
2019-04-22T10:55:25.369Z,95252.32
2019-04-22T10:57:50.645Z,95248.62
2019-04-22T11:00:17.555Z,95239.90
2019-04-22T11:02:43.585Z,95237.53
2019-04-22T11:05:08.228Z,95237.86
2019-04-22T11:07:42.392Z,95235.69
2019-04-22T11:10:17.867Z,95233.23
2019-04-22T11:12:28.870Z,95238.48
2019-04-22T11:14:52.152Z,95232.41
2019-04-22T11:17:19.301Z,95225.11
2019-04-22T11:19:45.723Z,95228.19
2019-04-22T11:22:20.025Z,95225.94
2019-04-22T11:24:37.012Z,95222.06
2019-04-22T11:27:03.205Z,95223.39
2019-04-22T11:29:29.798Z,95222.86
2019-04-22T11:31:54.717Z,95221.64
2019-04-22T11:34:21.345Z,95218.97
2019-04-22T11:36:47.138Z,95213.22
2019-04-22T11:39:13.655Z,95208.80
2019-04-22T11:41:38.403Z,95210.84
2019-04-22T11:44:05.415Z,95208.72
2019-04-22T11:46:31.534Z,95204.30
2019-04-22T11:48:56.464Z,95202.43
2019-04-22T11:51:22.467Z,95193.63
2019-04-22T11:53:49.129Z,95193.63
2019-04-22T11:56:14.514Z,95189.92
2019-04-22T11:58:40.508Z,95183.05
2019-04-22T12:01:06.679Z,95189.42
2019-04-22T12:03:33.833Z,95185.50
2019-04-22T12:05:59.827Z,95176.58
2019-04-22T12:08:25.128Z,95175.25
2019-04-22T12:10:56.292Z,95175.66
2019-04-22T12:13:17.881Z,95173.41
2019-04-22T12:15:42.826Z,95169.70
2019-04-22T12:18:09.230Z,95163.03
2019-04-22T12:20:35.013Z,95155.65
2019-04-22T12:23:01.129Z,95156.48
2019-04-22T12:25:37.425Z,95153.69
2019-04-22T12:27:52.996Z,95155.73
2019-04-22T12:30:19.600Z,95154.41
2019-04-22T12:32:45.588Z,95155.53
2019-04-22T12:35:11.620Z,95155.86
2019-04-22T12:37:47.069Z,95153.19
2019-04-22T12:40:04.204Z,95152.06
2019-04-22T12:42:29.306Z,95150.73
2019-04-22T12:44:55.972Z,95148.98
2019-04-22T12:47:22.215Z,95145.39
2019-04-22T12:49:56.184Z,95142.22
2019-04-22T12:52:24.469Z,95140.05
2019-04-22T12:54:39.380Z,95143.64
2019-04-22T12:57:05.868Z,95142.39
2019-04-22T12:59:31.845Z,95136.14
2019-04-22T13:01:58.546Z,95135.22
2019-04-22T13:04:25.121Z,95130.30
2019-04-22T13:06:49.950Z,95129.88
2019-04-22T13:09:17.583Z,95130.59
2019-04-22T13:11:42.708Z,95127.30
2019-04-22T13:14:07.385Z,95128.64
2019-04-22T13:16:33.396Z,95120.34
2019-04-22T13:19:04.789Z,95110.58
2019-04-22T13:21:26.769Z,95112.33
2019-04-22T13:23:52.923Z,95109.66
2019-04-22T13:26:18.872Z,95104.33
2019-04-22T13:28:43.428Z,95105.75
2019-04-22T13:31:09.812Z,95098.16
2019-04-22T13:33:36.788Z,95080.40
2019-04-22T13:36:01.713Z,95089.86
2019-04-22T13:38:28.984Z,95084.02
2019-04-22T13:41:09.827Z,95099.08
2019-04-22T13:43:20.802Z,95097.56
2019-04-22T13:45:45.776Z,95102.78
2019-04-22T13:48:32.382Z,95099.28
2019-04-22T13:51:03.865Z,95099.50
2019-04-22T13:53:44.935Z,95095.91
2019-04-22T13:58:08.718Z,95107.41
2019-04-22T14:00:22.518Z,95103.50
2019-04-22T14:02:48.559Z,95110.70
2019-04-22T14:05:14.880Z,95115.50
2019-04-22T14:07:41.029Z,95119.51
2019-04-22T14:10:06.577Z,95116.84
2019-04-22T14:12:32.944Z,95113.79
2019-04-22T14:14:58.438Z,95119.51
2019-04-22T14:17:24.963Z,95116.45
2019-04-22T14:19:50.853Z,95121.26
2019-04-22T14:22:16.023Z,95130.39
2019-04-22T14:24:42.649Z,95131.42
2019-04-22T14:27:22.102Z,95124.25
2019-04-22T14:29:34.003Z,95134.51
2019-04-22T14:32:07.558Z,95132.77
2019-04-22T14:34:26.576Z,95132.14
2019-04-22T14:36:53.084Z,95129.38
2019-04-22T14:39:18.163Z,95131.93
2019-04-22T14:42:02.658Z,95127.92
2019-04-22T14:47:03.511Z,95132.64
2019-04-22T14:49:24.049Z,95132.77
2019-04-22T14:51:53.346Z,95123.22
2019-04-22T14:54:09.755Z,95131.22
2019-04-22T14:56:20.304Z,95117.88
2019-04-22T14:58:46.879Z,95123.22
2019-04-22T15:01:12.933Z,95119.84
2019-04-22T15:03:42.024Z,95123.84
2019-04-22T15:06:04.371Z,95128.76
2019-04-22T15:08:31.078Z,95129.17
2019-04-22T15:10:58.100Z,95126.59
2019-04-22T15:13:23.313Z,95123.92
2019-04-22T15:15:51.140Z,95127.92
2019-04-22T15:18:15.596Z,95129.38
2019-04-22T15:20:41.608Z,95131.22
2019-04-22T15:23:06.775Z,95136.05
2019-04-22T15:25:32.609Z,95134.72
2019-04-22T15:27:59.432Z,95138.52
2019-04-22T15:30:25.541Z,95145.09
2019-04-22T15:32:51.594Z,95142.02
2019-04-22T15:35:17.523Z,95138.52
2019-04-22T15:37:43.382Z,95136.88
2019-04-22T15:40:08.862Z,95133.09
2019-04-22T15:42:38.321Z,95129.09
2019-04-22T15:45:02.417Z,95127.84
2019-04-22T15:47:27.046Z,95120.34
2019-04-22T15:49:53.911Z,95120.97
2019-04-22T15:52:18.971Z,95121.38
2019-04-22T15:54:47.148Z,95118.83
2019-04-22T15:57:10.867Z,95121.50
2019-04-22T15:59:53.722Z,95115.21
2019-04-22T16:02:04.152Z,95116.66
2019-04-22T16:04:28.779Z,95116.66
2019-04-22T16:06:57.095Z,95123.34
2019-04-22T16:09:20.971Z,95122.50
2019-04-22T16:11:47.723Z,95122.50
2019-04-22T16:14:15.839Z,95134.09
2019-04-22T16:16:40.586Z,95135.55
2019-04-22T16:19:06.645Z,95131.55
2019-04-22T16:21:40.465Z,95134.62
2019-04-22T16:23:58.423Z,95127.12
2019-04-22T16:26:24.306Z,95128.05
2019-04-22T16:28:49.337Z,95129.38
2019-04-22T16:31:15.480Z,95129.50
2019-04-22T16:33:43.441Z,95123.34
2019-04-22T16:36:08.820Z,95126.83
2019-04-22T16:38:33.376Z,95127.34
2019-04-22T16:41:00.907Z,95126.30
2019-04-22T16:43:26.549Z,95132.17
2019-04-22T16:45:51.819Z,95128.25
2019-04-22T16:48:17.832Z,95130.92
2019-04-22T16:50:45.431Z,95144.80
2019-04-22T16:53:10.231Z,95149.09
2019-04-22T16:55:36.828Z,95144.97
2019-04-22T16:58:03.079Z,95149.92
2019-04-22T17:00:28.804Z,95161.52
2019-04-22T17:02:54.548Z,95160.98
2019-04-22T17:05:19.868Z,95153.80
2019-04-22T17:07:45.783Z,95154.72
2019-04-22T17:10:11.718Z,95153.39
2019-04-22T17:12:48.110Z,95147.77
2019-04-22T17:15:08.053Z,95148.17
2019-04-22T17:17:30.797Z,95151.55
2019-04-22T17:19:57.538Z,95150.94
2019-04-22T17:22:21.894Z,95142.52
2019-04-22T17:24:47.947Z,95152.48
2019-04-22T17:27:14.726Z,95149.69
2019-04-22T17:29:41.021Z,95149.60
2019-04-22T17:32:13.105Z,95149.09
2019-04-22T17:34:31.970Z,95148.98
2019-04-22T17:36:59.216Z,95140.97
2019-04-22T17:39:40.418Z,95144.05
2019-04-22T17:42:11.413Z,95153.81
2019-04-22T17:44:46.099Z,95157.19
2019-04-22T17:46:54.792Z,95162.73
2019-04-22T17:49:31.774Z,95168.07
2019-04-22T17:51:59.446Z,95172.58
2019-04-22T17:54:21.427Z,95182.54
2019-04-22T17:56:48.661Z,95176.58
2019-04-22T17:59:15.552Z,95173.11
2019-04-22T18:01:40.286Z,95175.45
2019-04-22T18:03:50.963Z,95188.29
2019-04-22T18:06:28.022Z,95186.23
2019-04-22T18:08:56.443Z,95194.54
2019-04-22T18:11:28.836Z,95197.41
2019-04-22T18:13:54.722Z,95206.87
2019-04-22T18:16:18.242Z,95210.55
2019-04-22T18:18:42.891Z,95219.59
2019-04-22T18:21:06.289Z,95223.09
2019-04-22T18:23:20.841Z,95228.42
2019-04-22T18:26:00.462Z,95232.92
2019-04-22T18:28:32.755Z,95236.22
2019-04-22T18:30:42.319Z,95234.46
2019-04-22T18:33:20.793Z,95238.26
2019-04-22T18:35:42.177Z,95232.63
2019-04-22T18:38:21.934Z,95235.30
2019-04-22T18:40:36.363Z,95236.63
2019-04-22T18:43:08.004Z,95242.77
2019-04-22T18:47:52.202Z,95248.10
2019-04-22T18:50:30.719Z,95250.36
2019-04-22T18:52:48.966Z,95248.63
2019-04-22T18:55:09.746Z,95250.47
2019-04-22T18:57:32.619Z,95260.11
2019-04-22T18:59:47.298Z,95262.06
2019-04-22T19:02:13.975Z,95277.66
2019-04-22T19:04:44.382Z,95277.96
2019-04-22T19:07:33.190Z,95276.13
2019-04-22T19:09:58.236Z,95283.63
2019-04-22T19:12:38.325Z,95290.71
2019-04-22T19:14:45.447Z,95285.38
2019-04-22T19:17:19.031Z,95280.63
2019-04-22T19:22:02.515Z,95281.97
2019-04-22T19:24:22.969Z,95278.80
2019-04-22T19:29:18.664Z,95286.69
2019-04-22T19:31:45.521Z,95291.52
2019-04-22T19:34:12.635Z,95288.77
2019-04-22T19:36:45.130Z,95298.70
2019-04-22T19:38:58.753Z,95312.38
2019-04-22T19:41:35.162Z,95321.51
2019-04-22T19:43:58.108Z,95318.42
2019-04-22T19:46:19.354Z,95325.89
2019-04-22T19:48:50.235Z,95334.94
2019-04-22T19:51:15.860Z,95336.06
2019-04-22T19:53:40.683Z,95339.16
2019-04-22T19:56:01.484Z,95333.52
2019-04-22T19:58:25.934Z,95339.66
2019-04-22T20:00:49.412Z,95344.08
2019-04-22T20:03:35.000Z,95350.66
2019-04-22T20:05:58.072Z,95352.80
2019-04-22T20:08:13.875Z,95358.55
2019-04-22T20:10:42.094Z,95366.55
2019-04-22T20:13:10.127Z,95362.55
2019-04-22T20:15:26.921Z,95361.63
2019-04-22T20:20:27.334Z,95358.66
2019-04-22T20:22:52.395Z,95368.50
2019-04-22T20:25:08.615Z,95366.88
2019-04-22T20:27:47.448Z,95377.14
2019-04-22T20:30:14.435Z,95371.72
2019-04-22T20:32:41.863Z,95380.64
2019-04-22T20:35:21.284Z,95381.89
2019-04-22T20:37:44.303Z,95384.23
2019-04-22T20:40:10.611Z,95389.66
2019-04-22T20:45:09.908Z,95392.33
2019-04-22T20:47:26.488Z,95393.86
2019-04-22T20:50:02.250Z,95398.48
2019-04-22T20:54:45.001Z,95385.02
2019-04-22T20:57:10.848Z,95387.27
2019-04-22T20:59:38.668Z,95397.95
2019-04-22T21:02:03.691Z,95403.82
2019-04-22T21:04:24.778Z,95403.91
2019-04-22T21:06:55.985Z,95405.23
2019-04-22T21:09:24.050Z,95410.16
2019-04-22T21:11:48.055Z,95403.10
2019-04-22T21:14:15.131Z,95405.77
2019-04-22T21:16:44.938Z,95417.86
2019-04-22T21:19:20.105Z,95416.03
2019-04-22T21:21:38.020Z,95420.11
2019-04-22T21:23:53.979Z,95423.31
2019-04-22T21:26:27.475Z,95419.40
2019-04-22T21:28:52.968Z,95420.44
2019-04-22T21:31:24.840Z,95426.19
2019-04-22T21:33:47.255Z,95430.58
2019-04-22T21:36:29.979Z,95428.86
2019-04-22T21:38:40.361Z,95428.02
2019-04-22T21:40:59.941Z,95425.85
2019-04-22T21:43:30.564Z,95429.86
2019-04-22T21:45:57.093Z,95430.77
2019-04-22T21:48:28.038Z,95432.64
2019-04-22T21:50:58.133Z,95427.30
2019-04-22T21:53:14.197Z,95435.39
2019-04-22T21:55:43.716Z,95434.06
2019-04-22T21:58:08.003Z,95437.14
2019-04-22T22:00:55.752Z,95442.98
2019-04-22T22:03:03.173Z,95438.67
2019-04-22T22:05:15.340Z,95451.10
2019-04-22T22:07:30.773Z,95443.09
2019-04-22T22:10:16.894Z,95448.44
2019-04-22T22:12:40.795Z,95458.69
2019-04-22T22:15:08.465Z,95456.02
2019-04-22T22:17:31.411Z,95460.52
2019-04-22T22:19:57.852Z,95465.48
2019-04-22T22:24:54.756Z,95460.52
2019-04-22T22:27:18.768Z,95469.15
2019-04-22T22:29:57.018Z,95469.56
2019-04-22T22:32:13.327Z,95469.15
2019-04-22T22:34:32.721Z,95465.56
2019-04-22T22:37:00.379Z,95463.81
2019-04-22T22:39:20.913Z,95459.39
2019-04-22T22:41:34.159Z,95460.73
2019-04-22T22:44:08.835Z,95455.39
2019-04-22T22:46:35.532Z,95461.67
2019-04-22T22:49:18.728Z,95459.39
2019-04-22T22:51:45.338Z,95464.84
2019-04-22T22:54:03.824Z,95466.17
2019-04-22T22:56:36.828Z,95466.17
2019-04-22T22:59:01.773Z,95473.77
2019-04-22T23:01:28.691Z,95472.55
2019-04-22T23:04:03.729Z,95470.68
2019-04-22T23:06:21.020Z,95468.55
2019-04-22T23:08:38.571Z,95468.93
2019-04-22T23:11:05.150Z,95471.30
2019-04-22T23:13:49.726Z,95474.80
2019-04-22T23:15:50.197Z,95479.60
2019-04-22T23:18:03.831Z,95479.72
2019-04-22T23:20:34.350Z,95480.13
2019-04-22T23:23:14.062Z,95480.63
2019-04-22T23:25:44.995Z,95481.97
2019-04-22T23:28:05.965Z,95478.08
2019-04-22T23:30:21.947Z,95479.41
2019-04-22T23:32:50.003Z,95471.80
2019-04-22T23:35:22.676Z,95471.80
2019-04-22T23:37:49.887Z,95472.74
2019-04-22T23:40:24.691Z,95473.24
2019-04-22T23:42:41.179Z,95480.75
2019-04-22T23:45:10.681Z,95484.75
2019-04-22T23:47:26.542Z,95485.67
2019-04-22T23:49:56.475Z,95487.92
2019-04-22T23:52:23.900Z,95488.84
2019-04-22T23:54:52.380Z,95495.50
2019-04-22T23:57:15.463Z,95496.42
